sensor_id;sensor_type;location;lat;lon;timestamp;P1;durP1;ratioP1;P2;durP2;ratioP2
39486;SDS011;25173;50.430;18.926;2022-08-11T00:01:12;4.30;;;2.67;;
39486;SDS011;25173;50.430;18.926;2022-08-11T00:04:15;8.48;;;3.65;;
39486;SDS011;25173;50.430;18.926;2022-08-11T00:07:17;3.92;;;2.70;;
39486;SDS011;25173;50.430;18.926;2022-08-11T00:10:22;6.43;;;3.63;;
39486;SDS011;25173;50.430;18.926;2022-08-11T00:13:31;8.60;;;3.05;;
39486;SDS011;25173;50.430;18.926;2022-08-11T00:16:36;8.77;;;3.38;;
39486;SDS011;25173;50.430;18.926;2022-08-11T00:19:41;7.95;;;3.97;;
39486;SDS011;25173;50.430;18.926;2022-08-11T00:22:45;7.53;;;3.40;;
39486;SDS011;25173;50.430;18.926;2022-08-11T00:25:48;6.05;;;3.63;;
39486;SDS011;25173;50.430;18.926;2022-08-11T00:28:53;6.22;;;3.58;;
39486;SDS011;25173;50.430;18.926;2022-08-11T00:31:55;9.35;;;3.35;;
39486;SDS011;25173;50.430;18.926;2022-08-11T00:34:57;8.25;;;3.90;;
39486;SDS011;25173;50.430;18.926;2022-08-11T00:38:00;7.32;;;4.90;;
39486;SDS011;25173;50.430;18.926;2022-08-11T01:15:19;10.80;;;3.10;;
39486;SDS011;25173;50.430;18.926;2022-08-11T01:25:27;11.15;;;4.00;;
39486;SDS011;25173;50.430;18.926;2022-08-11T01:46:30;12.45;;;3.85;;
39486;SDS011;25173;50.430;18.926;2022-08-11T01:50:01;13.43;;;4.00;;
39486;SDS011;25173;50.430;18.926;2022-08-11T02:00:13;10.07;;;4.00;;
39486;SDS011;25173;50.430;18.926;2022-08-11T02:03:23;7.55;;;3.30;;
39486;SDS011;25173;50.430;18.926;2022-08-11T02:19:56;7.70;;;3.97;;
39486;SDS011;25173;50.430;18.926;2022-08-11T02:26:40;10.40;;;3.83;;
39486;SDS011;25173;50.430;18.926;2022-08-11T02:29:50;6.38;;;3.35;;
39486;SDS011;25173;50.430;18.926;2022-08-11T02:33:23;4.20;;;3.15;;
39486;SDS011;25173;50.430;18.926;2022-08-11T02:36:37;7.20;;;4.23;;
39486;SDS011;25173;50.430;18.926;2022-08-11T02:43:03;7.60;;;3.40;;
39486;SDS011;25173;50.430;18.926;2022-08-11T02:46:19;4.45;;;3.08;;
39486;SDS011;25173;50.430;18.926;2022-08-11T02:49:25;7.60;;;3.85;;
39486;SDS011;25173;50.430;18.926;2022-08-11T02:52:56;26.48;;;12.52;;
39486;SDS011;25173;50.430;18.926;2022-08-11T02:56:07;67.57;;;36.60;;
39486;SDS011;25173;50.430;18.926;2022-08-11T02:59:18;27.42;;;15.45;;
39486;SDS011;25173;50.430;18.926;2022-08-11T03:06:07;30.65;;;16.20;;
39486;SDS011;25173;50.430;18.926;2022-08-11T03:09:19;23.45;;;12.85;;
39486;SDS011;25173;50.430;18.926;2022-08-11T03:12:32;26.30;;;14.57;;
39486;SDS011;25173;50.430;18.926;2022-08-11T03:19:45;19.25;;;12.13;;
39486;SDS011;25173;50.430;18.926;2022-08-11T03:26:32;22.83;;;12.32;;
39486;SDS011;25173;50.430;18.926;2022-08-11T03:33:14;19.15;;;10.93;;
39486;SDS011;25173;50.430;18.926;2022-08-11T03:40:50;34.80;;;11.50;;
39486;SDS011;25173;50.430;18.926;2022-08-11T03:44:24;15.05;;;9.35;;
39486;SDS011;25173;50.430;18.926;2022-08-11T03:54:53;18.35;;;8.82;;
39486;SDS011;25173;50.430;18.926;2022-08-11T03:58:41;17.48;;;8.32;;
39486;SDS011;25173;50.430;18.926;2022-08-11T04:02:29;14.48;;;8.65;;
39486;SDS011;25173;50.430;18.926;2022-08-11T04:05:49;15.93;;;8.43;;
39486;SDS011;25173;50.430;18.926;2022-08-11T04:19:28;19.30;;;8.05;;
39486;SDS011;25173;50.430;18.926;2022-08-11T04:36:36;10.68;;;6.60;;
39486;SDS011;25173;50.430;18.926;2022-08-11T04:50:53;13.73;;;6.30;;
39486;SDS011;25173;50.430;18.926;2022-08-11T04:54:27;12.57;;;4.72;;
39486;SDS011;25173;50.430;18.926;2022-08-11T05:15:15;7.20;;;4.30;;
39486;SDS011;25173;50.430;18.926;2022-08-11T05:18:50;7.78;;;4.07;;
39486;SDS011;25173;50.430;18.926;2022-08-11T05:22:11;6.97;;;3.83;;
39486;SDS011;25173;50.430;18.926;2022-08-11T05:25:32;10.15;;;4.32;;
39486;SDS011;25173;50.430;18.926;2022-08-11T05:28:53;11.20;;;4.75;;
39486;SDS011;25173;50.430;18.926;2022-08-11T05:32:17;8.30;;;4.60;;
39486;SDS011;25173;50.430;18.926;2022-08-11T05:35:41;10.43;;;3.63;;
39486;SDS011;25173;50.430;18.926;2022-08-11T05:39:06;7.25;;;4.05;;
39486;SDS011;25173;50.430;18.926;2022-08-11T05:42:32;10.07;;;3.85;;
39486;SDS011;25173;50.430;18.926;2022-08-11T05:45:58;11.30;;;3.63;;
39486;SDS011;25173;50.430;18.926;2022-08-11T05:49:22;5.40;;;3.72;;
39486;SDS011;25173;50.430;18.926;2022-08-11T05:52:44;8.82;;;4.05;;
39486;SDS011;25173;50.430;18.926;2022-08-11T05:56:05;6.95;;;3.92;;
39486;SDS011;25173;50.430;18.926;2022-08-11T05:59:19;6.27;;;3.87;;
39486;SDS011;25173;50.430;18.926;2022-08-11T06:02:23;5.75;;;3.55;;
39486;SDS011;25173;50.430;18.926;2022-08-11T06:05:34;7.07;;;4.30;;
39486;SDS011;25173;50.430;18.926;2022-08-11T06:08:36;6.40;;;3.88;;
39486;SDS011;25173;50.430;18.926;2022-08-11T06:11:38;7.38;;;3.30;;
39486;SDS011;25173;50.430;18.926;2022-08-11T06:14:41;6.55;;;3.42;;
39486;SDS011;25173;50.430;18.926;2022-08-11T06:17:44;11.95;;;2.97;;
39486;SDS011;25173;50.430;18.926;2022-08-11T06:20:50;9.07;;;3.40;;
39486;SDS011;25173;50.430;18.926;2022-08-11T06:23:54;9.45;;;4.25;;
39486;SDS011;25173;50.430;18.926;2022-08-11T06:26:55;7.43;;;3.65;;
39486;SDS011;25173;50.430;18.926;2022-08-11T06:29:56;7.85;;;4.07;;
39486;SDS011;25173;50.430;18.926;2022-08-11T06:32:58;10.27;;;3.70;;
39486;SDS011;25173;50.430;18.926;2022-08-11T06:36:12;6.97;;;3.42;;
39486;SDS011;25173;50.430;18.926;2022-08-11T06:39:27;5.88;;;3.03;;
39486;SDS011;25173;50.430;18.926;2022-08-11T06:48:54;6.68;;;3.20;;
39486;SDS011;25173;50.430;18.926;2022-08-11T06:51:57;4.38;;;2.67;;
39486;SDS011;25173;50.430;18.926;2022-08-11T06:55:04;6.65;;;2.75;;
39486;SDS011;25173;50.430;18.926;2022-08-11T06:58:15;5.38;;;3.13;;
39486;SDS011;25173;50.430;18.926;2022-08-11T07:08:40;5.72;;;2.88;;
39486;SDS011;25173;50.430;18.926;2022-08-11T07:16:08;7.72;;;2.45;;
39486;SDS011;25173;50.430;18.926;2022-08-11T07:19:11;6.22;;;2.90;;
39486;SDS011;25173;50.430;18.926;2022-08-11T07:22:35;7.95;;;2.72;;
39486;SDS011;25173;50.430;18.926;2022-08-11T07:25:55;6.35;;;2.88;;
39486;SDS011;25173;50.430;18.926;2022-08-11T07:29:18;6.55;;;3.80;;
39486;SDS011;25173;50.430;18.926;2022-08-11T07:32:25;6.28;;;2.88;;
39486;SDS011;25173;50.430;18.926;2022-08-11T07:41:43;4.05;;;2.60;;
39486;SDS011;25173;50.430;18.926;2022-08-11T07:44:44;2.60;;;1.90;;
39486;SDS011;25173;50.430;18.926;2022-08-11T07:48:04;4.50;;;2.05;;
39486;SDS011;25173;50.430;18.926;2022-08-11T07:51:25;10.43;;;2.15;;
39486;SDS011;25173;50.430;18.926;2022-08-11T07:54:44;5.20;;;2.00;;
39486;SDS011;25173;50.430;18.926;2022-08-11T07:57:45;4.22;;;2.08;;
39486;SDS011;25173;50.430;18.926;2022-08-11T08:01:06;3.15;;;1.88;;
39486;SDS011;25173;50.430;18.926;2022-08-11T08:04:25;3.15;;;1.80;;
39486;SDS011;25173;50.430;18.926;2022-08-11T08:07:45;5.30;;;1.92;;
39486;SDS011;25173;50.430;18.926;2022-08-11T08:11:05;3.97;;;1.92;;
39486;SDS011;25173;50.430;18.926;2022-08-11T08:14:26;7.43;;;1.67;;
39486;SDS011;25173;50.430;18.926;2022-08-11T08:17:45;3.13;;;1.45;;
39486;SDS011;25173;50.430;18.926;2022-08-11T08:20:56;3.65;;;1.83;;
39486;SDS011;25173;50.430;18.926;2022-08-11T08:24:11;6.32;;;1.95;;
39486;SDS011;25173;50.430;18.926;2022-08-11T08:27:12;3.95;;;1.83;;
39486;SDS011;25173;50.430;18.926;2022-08-11T08:30:15;8.35;;;2.60;;
39486;SDS011;25173;50.430;18.926;2022-08-11T08:33:35;3.30;;;2.08;;
39486;SDS011;25173;50.430;18.926;2022-08-11T08:36:43;6.03;;;1.85;;
39486;SDS011;25173;50.430;18.926;2022-08-11T08:39:46;2.95;;;1.60;;
39486;SDS011;25173;50.430;18.926;2022-08-11T08:42:48;2.08;;;1.63;;
39486;SDS011;25173;50.430;18.926;2022-08-11T08:45:54;7.78;;;1.38;;
39486;SDS011;25173;50.430;18.926;2022-08-11T08:48:56;6.55;;;2.38;;
39486;SDS011;25173;50.430;18.926;2022-08-11T08:52:03;3.92;;;1.23;;
39486;SDS011;25173;50.430;18.926;2022-08-11T08:55:08;3.42;;;1.48;;
39486;SDS011;25173;50.430;18.926;2022-08-11T08:58:14;2.25;;;1.60;;
39486;SDS011;25173;50.430;18.926;2022-08-11T09:01:18;7.00;;;1.50;;
39486;SDS011;25173;50.430;18.926;2022-08-11T09:04:21;9.43;;;1.52;;
39486;SDS011;25173;50.430;18.926;2022-08-11T09:07:22;2.35;;;1.58;;
39486;SDS011;25173;50.430;18.926;2022-08-11T09:10:25;3.65;;;1.70;;
39486;SDS011;25173;50.430;18.926;2022-08-11T09:13:29;11.25;;;1.75;;
39486;SDS011;25173;50.430;18.926;2022-08-11T09:16:33;3.63;;;1.73;;
39486;SDS011;25173;50.430;18.926;2022-08-11T09:19:36;2.45;;;1.55;;
39486;SDS011;25173;50.430;18.926;2022-08-11T09:22:38;4.07;;;1.45;;
39486;SDS011;25173;50.430;18.926;2022-08-11T09:25:59;2.38;;;1.60;;
39486;SDS011;25173;50.430;18.926;2022-08-11T09:29:19;1.45;;;1.05;;
39486;SDS011;25173;50.430;18.926;2022-08-11T09:32:20;3.90;;;1.50;;
39486;SDS011;25173;50.430;18.926;2022-08-11T09:35:22;9.85;;;1.63;;
39486;SDS011;25173;50.430;18.926;2022-08-11T09:38:25;1.83;;;1.15;;
39486;SDS011;25173;50.430;18.926;2022-08-11T09:41:45;8.40;;;1.38;;
39486;SDS011;25173;50.430;18.926;2022-08-11T09:44:46;2.60;;;1.25;;
39486;SDS011;25173;50.430;18.926;2022-08-11T09:47:47;1.75;;;1.20;;
39486;SDS011;25173;50.430;18.926;2022-08-11T09:50:49;2.58;;;0.93;;
39486;SDS011;25173;50.430;18.926;2022-08-11T09:53:52;2.47;;;1.00;;
39486;SDS011;25173;50.430;18.926;2022-08-11T09:56:52;3.17;;;1.25;;
39486;SDS011;25173;50.430;18.926;2022-08-11T10:00:12;2.08;;;1.00;;
39486;SDS011;25173;50.430;18.926;2022-08-11T10:03:16;6.57;;;1.42;;
39486;SDS011;25173;50.430;18.926;2022-08-11T10:06:20;2.97;;;1.30;;
39486;SDS011;25173;50.430;18.926;2022-08-11T10:09:39;2.67;;;1.27;;
39486;SDS011;25173;50.430;18.926;2022-08-11T10:12:45;3.40;;;1.10;;
39486;SDS011;25173;50.430;18.926;2022-08-11T10:15:48;2.90;;;1.10;;
39486;SDS011;25173;50.430;18.926;2022-08-11T10:18:51;2.40;;;1.10;;
39486;SDS011;25173;50.430;18.926;2022-08-11T10:21:54;1.85;;;1.10;;
39486;SDS011;25173;50.430;18.926;2022-08-11T10:25:14;1.77;;;1.50;;
39486;SDS011;25173;50.430;18.926;2022-08-11T10:28:34;1.33;;;0.80;;
39486;SDS011;25173;50.430;18.926;2022-08-11T10:31:35;6.03;;;0.82;;
39486;SDS011;25173;50.430;18.926;2022-08-11T10:34:54;3.75;;;1.23;;
39486;SDS011;25173;50.430;18.926;2022-08-11T10:37:58;1.90;;;0.98;;
39486;SDS011;25173;50.430;18.926;2022-08-11T10:41:00;1.23;;;0.85;;
39486;SDS011;25173;50.430;18.926;2022-08-11T10:44:20;4.53;;;0.90;;
39486;SDS011;25173;50.430;18.926;2022-08-11T10:47:22;1.77;;;1.00;;
39486;SDS011;25173;50.430;18.926;2022-08-11T10:50:37;2.58;;;1.08;;
39486;SDS011;25173;50.430;18.926;2022-08-11T10:53:56;3.83;;;1.15;;
39486;SDS011;25173;50.430;18.926;2022-08-11T10:57:16;1.60;;;1.02;;
39486;SDS011;25173;50.430;18.926;2022-08-11T11:00:36;4.15;;;1.08;;
39486;SDS011;25173;50.430;18.926;2022-08-11T11:03:37;2.92;;;1.08;;
39486;SDS011;25173;50.430;18.926;2022-08-11T11:07:26;3.35;;;1.17;;
39486;SDS011;25173;50.430;18.926;2022-08-11T11:10:03;1.55;;;1.00;;
39486;SDS011;25173;50.430;18.926;2022-08-11T11:16:27;1.45;;;0.90;;
39486;SDS011;25173;50.430;18.926;2022-08-11T11:19:49;5.28;;;1.25;;
39486;SDS011;25173;50.430;18.926;2022-08-11T11:22:56;2.60;;;1.52;;
39486;SDS011;25173;50.430;18.926;2022-08-11T11:33:11;1.67;;;1.00;;
39486;SDS011;25173;50.430;18.926;2022-08-11T11:39:46;4.78;;;0.98;;
39486;SDS011;25173;50.430;18.926;2022-08-11T11:42:48;9.45;;;1.30;;
39486;SDS011;25173;50.430;18.926;2022-08-11T11:45:50;1.77;;;1.05;;
39486;SDS011;25173;50.430;18.926;2022-08-11T11:48:55;4.78;;;1.10;;
39486;SDS011;25173;50.430;18.926;2022-08-11T11:52:06;2.97;;;1.00;;
39486;SDS011;25173;50.430;18.926;2022-08-11T11:55:08;1.63;;;0.90;;
39486;SDS011;25173;50.430;18.926;2022-08-11T11:58:09;1.63;;;0.90;;
39486;SDS011;25173;50.430;18.926;2022-08-11T12:01:30;2.53;;;0.80;;
39486;SDS011;25173;50.430;18.926;2022-08-11T12:04:33;2.35;;;0.90;;
39486;SDS011;25173;50.430;18.926;2022-08-11T12:07:36;1.70;;;0.77;;
39486;SDS011;25173;50.430;18.926;2022-08-11T12:11:02;3.92;;;0.82;;
39486;SDS011;25173;50.430;18.926;2022-08-11T12:17:39;4.32;;;1.38;;
39486;SDS011;25173;50.430;18.926;2022-08-11T12:20:40;2.22;;;1.00;;
39486;SDS011;25173;50.430;18.926;2022-08-11T12:23:44;3.67;;;0.77;;
39486;SDS011;25173;50.430;18.926;2022-08-11T12:27:05;1.65;;;1.10;;
39486;SDS011;25173;50.430;18.926;2022-08-11T12:30:20;5.78;;;0.95;;
39486;SDS011;25173;50.430;18.926;2022-08-11T12:33:22;2.22;;;1.35;;
39486;SDS011;25173;50.430;18.926;2022-08-11T12:36:22;2.53;;;1.90;;
39486;SDS011;25173;50.430;18.926;2022-08-11T12:39:26;0.85;;;0.85;;
39486;SDS011;25173;50.430;18.926;2022-08-11T12:42:56;0.98;;;0.47;;
39486;SDS011;25173;50.430;18.926;2022-08-11T12:46:20;3.05;;;0.88;;
39486;SDS011;25173;50.430;18.926;2022-08-11T12:49:23;3.60;;;0.73;;
39486;SDS011;25173;50.430;18.926;2022-08-11T12:52:47;1.67;;;0.85;;
39486;SDS011;25173;50.430;18.926;2022-08-11T12:55:54;3.28;;;0.80;;
39486;SDS011;25173;50.430;18.926;2022-08-11T12:59:15;0.82;;;0.70;;
39486;SDS011;25173;50.430;18.926;2022-08-11T13:02:35;1.98;;;0.77;;
39486;SDS011;25173;50.430;18.926;2022-08-11T13:06:01;2.25;;;0.60;;
39486;SDS011;25173;50.430;18.926;2022-08-11T13:09:03;1.77;;;0.60;;
39486;SDS011;25173;50.430;18.926;2022-08-11T13:12:05;0.57;;;0.50;;
39486;SDS011;25173;50.430;18.926;2022-08-11T13:15:24;2.25;;;0.52;;
39486;SDS011;25173;50.430;18.926;2022-08-11T13:18:25;2.75;;;0.55;;
39486;SDS011;25173;50.430;18.926;2022-08-11T13:21:27;1.58;;;0.90;;
39486;SDS011;25173;50.430;18.926;2022-08-11T13:24:28;1.05;;;0.40;;
39486;SDS011;25173;50.430;18.926;2022-08-11T13:27:33;0.57;;;0.50;;
39486;SDS011;25173;50.430;18.926;2022-08-11T13:30:34;1.23;;;0.68;;
39486;SDS011;25173;50.430;18.926;2022-08-11T13:33:53;1.55;;;0.52;;
39486;SDS011;25173;50.430;18.926;2022-08-11T13:36:55;0.90;;;0.60;;
39486;SDS011;25173;50.430;18.926;2022-08-11T13:39:59;2.90;;;0.60;;
39486;SDS011;25173;50.430;18.926;2022-08-11T13:43:01;0.68;;;0.50;;
39486;SDS011;25173;50.430;18.926;2022-08-11T13:46:02;4.00;;;0.75;;
39486;SDS011;25173;50.430;18.926;2022-08-11T13:49:22;3.75;;;0.80;;
39486;SDS011;25173;50.430;18.926;2022-08-11T13:52:23;1.55;;;0.75;;
39486;SDS011;25173;50.430;18.926;2022-08-11T13:55:25;1.83;;;0.73;;
39486;SDS011;25173;50.430;18.926;2022-08-11T13:58:26;3.20;;;0.70;;
39486;SDS011;25173;50.430;18.926;2022-08-11T14:01:30;3.40;;;1.05;;
39486;SDS011;25173;50.430;18.926;2022-08-11T14:04:36;4.03;;;0.77;;
39486;SDS011;25173;50.430;18.926;2022-08-11T14:08:01;3.20;;;1.20;;
39486;SDS011;25173;50.430;18.926;2022-08-11T14:11:03;4.25;;;1.08;;
39486;SDS011;25173;50.430;18.926;2022-08-11T14:14:25;5.10;;;1.15;;
39486;SDS011;25173;50.430;18.926;2022-08-11T14:17:32;3.97;;;1.27;;
39486;SDS011;25173;50.430;18.926;2022-08-11T14:20:36;12.98;;;1.80;;
39486;SDS011;25173;50.430;18.926;2022-08-11T14:24:01;5.00;;;1.25;;
39486;SDS011;25173;50.430;18.926;2022-08-11T14:27:04;3.15;;;1.38;;
39486;SDS011;25173;50.430;18.926;2022-08-11T14:30:12;6.93;;;1.45;;
39486;SDS011;25173;50.430;18.926;2022-08-11T14:33:33;6.65;;;1.40;;
39486;SDS011;25173;50.430;18.926;2022-08-11T14:36:36;8.50;;;1.63;;
39486;SDS011;25173;50.430;18.926;2022-08-11T14:39:57;2.60;;;1.33;;
39486;SDS011;25173;50.430;18.926;2022-08-11T14:42:58;4.32;;;1.10;;
39486;SDS011;25173;50.430;18.926;2022-08-11T14:46:18;2.85;;;1.40;;
39486;SDS011;25173;50.430;18.926;2022-08-11T14:49:37;2.50;;;1.10;;
39486;SDS011;25173;50.430;18.926;2022-08-11T14:52:48;6.22;;;1.70;;
39486;SDS011;25173;50.430;18.926;2022-08-11T14:55:54;1.52;;;1.42;;
39486;SDS011;25173;50.430;18.926;2022-08-11T14:59:13;2.22;;;1.45;;
39486;SDS011;25173;50.430;18.926;2022-08-11T15:02:14;3.03;;;1.75;;
39486;SDS011;25173;50.430;18.926;2022-08-11T15:05:37;1.58;;;1.30;;
39486;SDS011;25173;50.430;18.926;2022-08-11T15:08:40;3.10;;;2.00;;
39486;SDS011;25173;50.430;18.926;2022-08-11T15:11:56;5.70;;;2.47;;
39486;SDS011;25173;50.430;18.926;2022-08-11T15:15:09;10.50;;;2.67;;
39486;SDS011;25173;50.430;18.926;2022-08-11T15:18:29;4.60;;;1.65;;
39486;SDS011;25173;50.430;18.926;2022-08-11T15:21:31;4.60;;;1.80;;
39486;SDS011;25173;50.430;18.926;2022-08-11T15:24:50;3.70;;;1.77;;
39486;SDS011;25173;50.430;18.926;2022-08-11T15:27:51;4.93;;;2.20;;
39486;SDS011;25173;50.430;18.926;2022-08-11T15:31:13;2.67;;;1.70;;
39486;SDS011;25173;50.430;18.926;2022-08-11T15:34:34;4.35;;;2.10;;
39486;SDS011;25173;50.430;18.926;2022-08-11T15:37:55;7.00;;;2.72;;
39486;SDS011;25173;50.430;18.926;2022-08-11T15:41:01;2.97;;;1.48;;
39486;SDS011;25173;50.430;18.926;2022-08-11T15:44:23;2.05;;;1.55;;
39486;SDS011;25173;50.430;18.926;2022-08-11T15:47:56;9.52;;;1.63;;
39486;SDS011;25173;50.430;18.926;2022-08-11T15:51:08;5.05;;;1.15;;
39486;SDS011;25173;50.430;18.926;2022-08-11T15:54:22;2.63;;;1.55;;
39486;SDS011;25173;50.430;18.926;2022-08-11T15:57:26;4.30;;;1.08;;
39486;SDS011;25173;50.430;18.926;2022-08-11T16:00:48;4.50;;;1.33;;
39486;SDS011;25173;50.430;18.926;2022-08-11T16:04:09;2.58;;;1.70;;
39486;SDS011;25173;50.430;18.926;2022-08-11T16:07:16;2.05;;;1.20;;
39486;SDS011;25173;50.430;18.926;2022-08-11T16:10:25;5.13;;;1.30;;
39486;SDS011;25173;50.430;18.926;2022-08-11T16:13:26;1.17;;;0.85;;
39486;SDS011;25173;50.430;18.926;2022-08-11T16:16:28;2.63;;;1.67;;
39486;SDS011;25173;50.430;18.926;2022-08-11T16:19:29;1.80;;;0.95;;
39486;SDS011;25173;50.430;18.926;2022-08-11T16:22:34;6.03;;;2.00;;
39486;SDS011;25173;50.430;18.926;2022-08-11T16:25:42;5.13;;;1.80;;
39486;SDS011;25173;50.430;18.926;2022-08-11T16:28:44;3.63;;;1.50;;
39486;SDS011;25173;50.430;18.926;2022-08-11T16:31:46;5.35;;;1.40;;
39486;SDS011;25173;50.430;18.926;2022-08-11T16:35:09;2.47;;;1.58;;
39486;SDS011;25173;50.430;18.926;2022-08-11T16:38:31;4.82;;;1.33;;
39486;SDS011;25173;50.430;18.926;2022-08-11T16:41:35;2.88;;;1.30;;
39486;SDS011;25173;50.430;18.926;2022-08-11T16:44:56;3.83;;;1.75;;
39486;SDS011;25173;50.430;18.926;2022-08-11T16:48:17;3.38;;;1.80;;
39486;SDS011;25173;50.430;18.926;2022-08-11T16:51:20;3.92;;;1.70;;
39486;SDS011;25173;50.430;18.926;2022-08-11T16:54:21;3.20;;;1.75;;
39486;SDS011;25173;50.430;18.926;2022-08-11T16:57:24;3.28;;;1.85;;
39486;SDS011;25173;50.430;18.926;2022-08-11T17:00:44;2.38;;;1.67;;
39486;SDS011;25173;50.430;18.926;2022-08-11T17:03:50;3.13;;;2.00;;
39486;SDS011;25173;50.430;18.926;2022-08-11T17:07:24;6.55;;;1.85;;
39486;SDS011;25173;50.430;18.926;2022-08-11T17:10:48;3.70;;;2.10;;
39486;SDS011;25173;50.430;18.926;2022-08-11T17:14:12;5.97;;;2.05;;
39486;SDS011;25173;50.430;18.926;2022-08-11T17:17:17;2.55;;;1.77;;
39486;SDS011;25173;50.430;18.926;2022-08-11T17:20:26;12.45;;;2.40;;
39486;SDS011;25173;50.430;18.926;2022-08-11T17:23:28;8.82;;;2.58;;
39486;SDS011;25173;50.430;18.926;2022-08-11T17:26:46;7.85;;;2.30;;
39486;SDS011;25173;50.430;18.926;2022-08-11T17:29:58;5.57;;;2.55;;
39486;SDS011;25173;50.430;18.926;2022-08-11T17:33:03;5.25;;;2.40;;
39486;SDS011;25173;50.430;18.926;2022-08-11T17:36:22;6.13;;;2.80;;
39486;SDS011;25173;50.430;18.926;2022-08-11T17:39:24;5.53;;;2.45;;
39486;SDS011;25173;50.430;18.926;2022-08-11T17:42:28;12.10;;;3.08;;
39486;SDS011;25173;50.430;18.926;2022-08-11T17:45:49;6.32;;;2.83;;
39486;SDS011;25173;50.430;18.926;2022-08-11T17:49:10;8.88;;;3.38;;
39486;SDS011;25173;50.430;18.926;2022-08-11T17:52:12;7.00;;;2.80;;
39486;SDS011;25173;50.430;18.926;2022-08-11T17:55:32;4.65;;;2.80;;
39486;SDS011;25173;50.430;18.926;2022-08-11T17:58:53;7.88;;;4.00;;
39486;SDS011;25173;50.430;18.926;2022-08-11T18:02:14;4.90;;;2.85;;
39486;SDS011;25173;50.430;18.926;2022-08-11T18:05:37;7.93;;;3.80;;
39486;SDS011;25173;50.430;18.926;2022-08-11T18:08:43;19.40;;;5.05;;
39486;SDS011;25173;50.430;18.926;2022-08-11T18:12:05;12.70;;;3.95;;
39486;SDS011;25173;50.430;18.926;2022-08-11T18:15:25;18.95;;;4.15;;
39486;SDS011;25173;50.430;18.926;2022-08-11T18:18:45;22.00;;;4.18;;
39486;SDS011;25173;50.430;18.926;2022-08-11T18:22:07;9.27;;;3.35;;
39486;SDS011;25173;50.430;18.926;2022-08-11T18:25:31;11.77;;;3.25;;
39486;SDS011;25173;50.430;18.926;2022-08-11T18:28:56;17.70;;;3.93;;
39486;SDS011;25173;50.430;18.926;2022-08-11T18:32:17;7.93;;;3.28;;
39486;SDS011;25173;50.430;18.926;2022-08-11T18:35:40;9.82;;;3.13;;
39486;SDS011;25173;50.430;18.926;2022-08-11T18:39:00;6.90;;;3.85;;
39486;SDS011;25173;50.430;18.926;2022-08-11T18:42:22;11.00;;;3.15;;
39486;SDS011;25173;50.430;18.926;2022-08-11T18:45:43;8.60;;;2.83;;
39486;SDS011;25173;50.430;18.926;2022-08-11T18:49:07;7.90;;;2.80;;
39486;SDS011;25173;50.430;18.926;2022-08-11T18:52:30;9.25;;;3.00;;
39486;SDS011;25173;50.430;18.926;2022-08-11T18:55:52;9.30;;;3.70;;
39486;SDS011;25173;50.430;18.926;2022-08-11T18:59:12;10.07;;;4.30;;
39486;SDS011;25173;50.430;18.926;2022-08-11T19:02:36;6.78;;;3.65;;
39486;SDS011;25173;50.430;18.926;2022-08-11T19:05:57;7.35;;;3.63;;
39486;SDS011;25173;50.430;18.926;2022-08-11T19:09:21;5.32;;;3.80;;
39486;SDS011;25173;50.430;18.926;2022-08-11T19:12:41;7.18;;;3.40;;
39486;SDS011;25173;50.430;18.926;2022-08-11T19:16:04;7.05;;;3.40;;
39486;SDS011;25173;50.430;18.926;2022-08-11T19:19:25;7.20;;;3.60;;
39486;SDS011;25173;50.430;18.926;2022-08-11T19:22:47;9.98;;;5.57;;
39486;SDS011;25173;50.430;18.926;2022-08-11T19:26:08;19.25;;;16.02;;
39486;SDS011;25173;50.430;18.926;2022-08-11T19:29:27;11.52;;;7.97;;
39486;SDS011;25173;50.430;18.926;2022-08-11T19:32:48;7.53;;;6.07;;
39486;SDS011;25173;50.430;18.926;2022-08-11T19:36:09;12.10;;;6.38;;
39486;SDS011;25173;50.430;18.926;2022-08-11T19:39:31;13.18;;;7.15;;
39486;SDS011;25173;50.430;18.926;2022-08-11T19:42:52;13.15;;;6.68;;
39486;SDS011;25173;50.430;18.926;2022-08-11T19:46:14;8.05;;;5.03;;
39486;SDS011;25173;50.430;18.926;2022-08-11T19:49:35;7.97;;;4.80;;
39486;SDS011;25173;50.430;18.926;2022-08-11T19:52:56;8.05;;;5.25;;
39486;SDS011;25173;50.430;18.926;2022-08-11T19:56:17;12.05;;;6.78;;
39486;SDS011;25173;50.430;18.926;2022-08-11T19:59:38;16.17;;;8.38;;
39486;SDS011;25173;50.430;18.926;2022-08-11T20:02:58;13.85;;;6.75;;
39486;SDS011;25173;50.430;18.926;2022-08-11T20:06:18;12.27;;;6.72;;
39486;SDS011;25173;50.430;18.926;2022-08-11T20:09:38;12.13;;;5.88;;
39486;SDS011;25173;50.430;18.926;2022-08-11T20:13:00;10.30;;;6.07;;
39486;SDS011;25173;50.430;18.926;2022-08-11T20:16:20;10.60;;;6.45;;
39486;SDS011;25173;50.430;18.926;2022-08-11T20:19:41;11.77;;;6.50;;
39486;SDS011;25173;50.430;18.926;2022-08-11T20:23:02;7.35;;;5.20;;
39486;SDS011;25173;50.430;18.926;2022-08-11T20:26:22;11.07;;;5.05;;
39486;SDS011;25173;50.430;18.926;2022-08-11T20:29:42;9.30;;;5.70;;
39486;SDS011;25173;50.430;18.926;2022-08-11T20:33:01;13.05;;;4.75;;
39486;SDS011;25173;50.430;18.926;2022-08-11T20:36:21;8.25;;;5.60;;
39486;SDS011;25173;50.430;18.926;2022-08-11T20:39:41;10.30;;;5.20;;
39486;SDS011;25173;50.430;18.926;2022-08-11T20:43:02;11.30;;;5.88;;
39486;SDS011;25173;50.430;18.926;2022-08-11T20:46:22;7.20;;;4.60;;
39486;SDS011;25173;50.430;18.926;2022-08-11T20:49:44;8.40;;;5.43;;
39486;SDS011;25173;50.430;18.926;2022-08-11T20:53:04;15.75;;;5.75;;
39486;SDS011;25173;50.430;18.926;2022-08-11T20:56:26;19.40;;;5.65;;
39486;SDS011;25173;50.430;18.926;2022-08-11T20:59:47;17.20;;;4.90;;
39486;SDS011;25173;50.430;18.926;2022-08-11T21:03:07;9.38;;;4.40;;
39486;SDS011;25173;50.430;18.926;2022-08-11T21:06:27;9.57;;;5.28;;
39486;SDS011;25173;50.430;18.926;2022-08-11T21:09:47;8.55;;;4.90;;
39486;SDS011;25173;50.430;18.926;2022-08-11T21:13:08;13.32;;;5.22;;
39486;SDS011;25173;50.430;18.926;2022-08-11T21:16:29;7.80;;;3.88;;
39486;SDS011;25173;50.430;18.926;2022-08-11T21:19:54;8.10;;;3.78;;
39486;SDS011;25173;50.430;18.926;2022-08-11T21:23:15;8.05;;;4.07;;
39486;SDS011;25173;50.430;18.926;2022-08-11T21:26:36;8.65;;;3.45;;
39486;SDS011;25173;50.430;18.926;2022-08-11T21:29:57;5.50;;;4.00;;
39486;SDS011;25173;50.430;18.926;2022-08-11T21:33:19;7.55;;;4.35;;
39486;SDS011;25173;50.430;18.926;2022-08-11T21:36:39;8.80;;;3.95;;
39486;SDS011;25173;50.430;18.926;2022-08-11T21:40:00;8.70;;;3.83;;
39486;SDS011;25173;50.430;18.926;2022-08-11T21:43:20;6.28;;;3.33;;
39486;SDS011;25173;50.430;18.926;2022-08-11T21:46:40;6.07;;;3.28;;
39486;SDS011;25173;50.430;18.926;2022-08-11T21:50:00;3.90;;;3.30;;
39486;SDS011;25173;50.430;18.926;2022-08-11T21:53:19;5.60;;;3.33;;
39486;SDS011;25173;50.430;18.926;2022-08-11T21:56:39;5.82;;;3.28;;
39486;SDS011;25173;50.430;18.926;2022-08-11T21:59:59;7.07;;;3.28;;
39486;SDS011;25173;50.430;18.926;2022-08-11T22:03:19;12.85;;;3.92;;
39486;SDS011;25173;50.430;18.926;2022-08-11T22:06:38;6.07;;;3.58;;
39486;SDS011;25173;50.430;18.926;2022-08-11T22:09:59;4.00;;;3.47;;
39486;SDS011;25173;50.430;18.926;2022-08-11T22:13:18;5.50;;;3.60;;
39486;SDS011;25173;50.430;18.926;2022-08-11T22:16:38;5.30;;;3.65;;
39486;SDS011;25173;50.430;18.926;2022-08-11T22:19:57;7.38;;;3.40;;
39486;SDS011;25173;50.430;18.926;2022-08-11T22:23:18;4.95;;;2.97;;
39486;SDS011;25173;50.430;18.926;2022-08-11T22:26:39;5.40;;;3.25;;
39486;SDS011;25173;50.430;18.926;2022-08-11T22:29:58;6.22;;;3.00;;